sensor_id;sensor_type;location;lat;lon;timestamp;P1;durP1;ratioP1;P2;durP2;ratioP2
67721;SDS011;58309;45.292;11.820;2023-10-08T00:02:22;36.25;;;21.40;;
67721;SDS011;58309;45.292;11.820;2023-10-08T00:04:50;32.70;;;20.42;;
67721;SDS011;58309;45.292;11.820;2023-10-08T00:07:20;32.38;;;20.45;;
67721;SDS011;58309;45.292;11.820;2023-10-08T00:09:47;34.88;;;20.05;;
67721;SDS011;58309;45.292;11.820;2023-10-08T00:12:13;34.83;;;21.42;;
67721;SDS011;58309;45.292;11.820;2023-10-08T00:14:41;36.70;;;21.35;;
67721;SDS011;58309;45.292;11.820;2023-10-08T00:17:13;33.17;;;21.33;;
67721;SDS011;58309;45.292;11.820;2023-10-08T00:19:39;38.45;;;23.45;;
67721;SDS011;58309;45.292;11.820;2023-10-08T00:22:07;44.53;;;24.55;;
67721;SDS011;58309;45.292;11.820;2023-10-08T00:24:34;40.25;;;23.08;;
67721;SDS011;58309;45.292;11.820;2023-10-08T00:27:00;38.88;;;21.95;;
67721;SDS011;58309;45.292;11.820;2023-10-08T00:29:26;40.08;;;22.80;;
67721;SDS011;58309;45.292;11.820;2023-10-08T00:31:52;41.63;;;22.58;;
67721;SDS011;58309;45.292;11.820;2023-10-08T00:34:19;38.88;;;22.98;;
67721;SDS011;58309;45.292;11.820;2023-10-08T00:36:45;43.75;;;23.25;;
67721;SDS011;58309;45.292;11.820;2023-10-08T00:39:13;43.30;;;23.55;;
67721;SDS011;58309;45.292;11.820;2023-10-08T00:41:43;42.97;;;24.13;;
67721;SDS011;58309;45.292;11.820;2023-10-08T00:44:10;41.38;;;23.90;;
67721;SDS011;58309;45.292;11.820;2023-10-08T00:46:47;43.05;;;22.63;;
67721;SDS011;58309;45.292;11.820;2023-10-08T00:49:15;38.55;;;22.63;;
67721;SDS011;58309;45.292;11.820;2023-10-08T00:51:50;38.47;;;21.88;;
67721;SDS011;58309;45.292;11.820;2023-10-08T00:54:26;38.92;;;22.58;;
67721;SDS011;58309;45.292;11.820;2023-10-08T00:56:54;33.42;;;20.58;;
67721;SDS011;58309;45.292;11.820;2023-10-08T00:59:26;41.53;;;23.17;;
67721;SDS011;58309;45.292;11.820;2023-10-08T01:01:51;42.42;;;23.02;;
67721;SDS011;58309;45.292;11.820;2023-10-08T01:04:31;40.47;;;21.70;;
67721;SDS011;58309;45.292;11.820;2023-10-08T01:07:03;40.92;;;20.95;;
67721;SDS011;58309;45.292;11.820;2023-10-08T01:09:38;32.78;;;19.30;;
67721;SDS011;58309;45.292;11.820;2023-10-08T01:12:09;34.90;;;20.55;;
67721;SDS011;58309;45.292;11.820;2023-10-08T01:14:49;31.40;;;19.92;;
67721;SDS011;58309;45.292;11.820;2023-10-08T01:17:18;36.58;;;20.73;;
67721;SDS011;58309;45.292;11.820;2023-10-08T01:19:49;35.65;;;19.90;;
67721;SDS011;58309;45.292;11.820;2023-10-08T01:22:33;35.38;;;20.10;;
67721;SDS011;58309;45.292;11.820;2023-10-08T01:24:59;39.28;;;19.92;;
67721;SDS011;58309;45.292;11.820;2023-10-08T01:27:29;33.97;;;19.83;;
67721;SDS011;58309;45.292;11.820;2023-10-08T01:29:59;31.52;;;19.75;;
67721;SDS011;58309;45.292;11.820;2023-10-08T01:32:42;42.72;;;21.65;;
67721;SDS011;58309;45.292;11.820;2023-10-08T01:35:08;33.63;;;21.73;;
67721;SDS011;58309;45.292;11.820;2023-10-08T01:37:47;38.63;;;22.20;;
67721;SDS011;58309;45.292;11.820;2023-10-08T01:40:16;38.33;;;21.05;;
67721;SDS011;58309;45.292;11.820;2023-10-08T01:42:42;39.03;;;20.45;;
67721;SDS011;58309;45.292;11.820;2023-10-08T01:45:08;38.20;;;20.50;;
67721;SDS011;58309;45.292;11.820;2023-10-08T01:50:04;33.90;;;20.75;;
67721;SDS011;58309;45.292;11.820;2023-10-08T01:52:32;37.80;;;21.40;;
67721;SDS011;58309;45.292;11.820;2023-10-08T01:55:00;37.00;;;21.88;;
67721;SDS011;58309;45.292;11.820;2023-10-08T01:57:25;40.92;;;22.27;;
67721;SDS011;58309;45.292;11.820;2023-10-08T01:59:51;50.10;;;23.60;;
67721;SDS011;58309;45.292;11.820;2023-10-08T02:02:16;41.58;;;21.90;;
67721;SDS011;58309;45.292;11.820;2023-10-08T02:04:42;42.30;;;22.30;;
67721;SDS011;58309;45.292;11.820;2023-10-08T02:07:08;38.22;;;22.77;;
67721;SDS011;58309;45.292;11.820;2023-10-08T02:09:38;53.80;;;24.15;;
67721;SDS011;58309;45.292;11.820;2023-10-08T02:12:04;38.80;;;21.83;;
67721;SDS011;58309;45.292;11.820;2023-10-08T02:14:29;42.50;;;21.77;;
67721;SDS011;58309;45.292;11.820;2023-10-08T02:16:57;37.28;;;21.50;;
67721;SDS011;58309;45.292;11.820;2023-10-08T02:19:26;40.30;;;21.55;;
67721;SDS011;58309;45.292;11.820;2023-10-08T02:21:53;43.22;;;23.55;;
67721;SDS011;58309;45.292;11.820;2023-10-08T02:24:19;40.00;;;22.92;;
67721;SDS011;58309;45.292;11.820;2023-10-08T02:26:52;43.42;;;23.67;;
67721;SDS011;58309;45.292;11.820;2023-10-08T02:29:20;43.95;;;24.50;;
67721;SDS011;58309;45.292;11.820;2023-10-08T02:31:47;43.85;;;23.85;;
67721;SDS011;58309;45.292;11.820;2023-10-08T02:34:12;45.83;;;25.13;;
67721;SDS011;58309;45.292;11.820;2023-10-08T02:36:39;47.40;;;25.67;;
67721;SDS011;58309;45.292;11.820;2023-10-08T02:39:05;50.83;;;27.25;;
67721;SDS011;58309;45.292;11.820;2023-10-08T02:41:46;55.67;;;28.83;;
67721;SDS011;58309;45.292;11.820;2023-10-08T02:44:13;49.72;;;28.15;;
67721;SDS011;58309;45.292;11.820;2023-10-08T02:46:39;49.72;;;28.50;;
67721;SDS011;58309;45.292;11.820;2023-10-08T02:49:09;54.78;;;30.40;;
67721;SDS011;58309;45.292;11.820;2023-10-08T02:51:42;54.80;;;29.00;;
67721;SDS011;58309;45.292;11.820;2023-10-08T02:54:13;62.13;;;30.33;;
67721;SDS011;58309;45.292;11.820;2023-10-08T02:56:45;56.45;;;31.48;;
67721;SDS011;58309;45.292;11.820;2023-10-08T02:59:12;63.42;;;30.73;;
67721;SDS011;58309;45.292;11.820;2023-10-08T03:01:39;65.57;;;33.88;;
67721;SDS011;58309;45.292;11.820;2023-10-08T03:04:08;64.30;;;32.63;;
67721;SDS011;58309;45.292;11.820;2023-10-08T03:06:46;69.97;;;34.20;;
67721;SDS011;58309;45.292;11.820;2023-10-08T03:09:16;67.90;;;34.50;;
67721;SDS011;58309;45.292;11.820;2023-10-08T03:11:57;69.00;;;34.67;;
67721;SDS011;58309;45.292;11.820;2023-10-08T03:14:23;73.20;;;35.55;;
67721;SDS011;58309;45.292;11.820;2023-10-08T03:16:52;73.43;;;35.30;;
67721;SDS011;58309;45.292;11.820;2023-10-08T03:19:21;65.28;;;30.48;;
67721;SDS011;58309;45.292;11.820;2023-10-08T03:21:48;51.08;;;28.00;;
67721;SDS011;58309;45.292;11.820;2023-10-08T03:24:21;55.05;;;28.70;;
67721;SDS011;58309;45.292;11.820;2023-10-08T03:27:00;49.53;;;26.48;;
67721;SDS011;58309;45.292;11.820;2023-10-08T03:29:52;52.42;;;27.10;;
67721;SDS011;58309;45.292;11.820;2023-10-08T03:32:19;56.03;;;29.60;;
67721;SDS011;58309;45.292;11.820;2023-10-08T03:34:51;54.05;;;29.25;;
67721;SDS011;58309;45.292;11.820;2023-10-08T03:37:21;63.25;;;31.48;;
67721;SDS011;58309;45.292;11.820;2023-10-08T03:39:54;57.58;;;30.08;;
67721;SDS011;58309;45.292;11.820;2023-10-08T03:42:46;57.53;;;30.52;;
67721;SDS011;58309;45.292;11.820;2023-10-08T03:45:14;59.42;;;31.30;;
67721;SDS011;58309;45.292;11.820;2023-10-08T03:47:47;56.70;;;28.55;;
67721;SDS011;58309;45.292;11.820;2023-10-08T03:50:28;51.35;;;26.77;;
67721;SDS011;58309;45.292;11.820;2023-10-08T03:53:05;49.15;;;27.60;;
67721;SDS011;58309;45.292;11.820;2023-10-08T03:55:37;58.70;;;29.17;;
67721;SDS011;58309;45.292;11.820;2023-10-08T03:58:09;56.15;;;30.45;;
67721;SDS011;58309;45.292;11.820;2023-10-08T04:00:37;65.00;;;32.00;;
67721;SDS011;58309;45.292;11.820;2023-10-08T04:03:06;60.95;;;31.67;;
67721;SDS011;58309;45.292;11.820;2023-10-08T04:05:36;59.13;;;29.60;;
67721;SDS011;58309;45.292;11.820;2023-10-08T04:08:10;69.90;;;32.40;;
67721;SDS011;58309;45.292;11.820;2023-10-08T04:11:08;64.13;;;32.55;;
67721;SDS011;58309;45.292;11.820;2023-10-08T04:16:26;64.70;;;30.85;;
67721;SDS011;58309;45.292;11.820;2023-10-08T04:18:53;71.72;;;32.67;;
67721;SDS011;58309;45.292;11.820;2023-10-08T04:21:22;77.25;;;36.10;;
67721;SDS011;58309;45.292;11.820;2023-10-08T04:23:52;79.32;;;36.35;;
67721;SDS011;58309;45.292;11.820;2023-10-08T04:26:19;71.57;;;34.15;;
67721;SDS011;58309;45.292;11.820;2023-10-08T04:28:54;64.47;;;33.22;;
67721;SDS011;58309;45.292;11.820;2023-10-08T04:31:24;61.58;;;32.80;;
67721;SDS011;58309;45.292;11.820;2023-10-08T04:33:53;73.95;;;33.70;;
67721;SDS011;58309;45.292;11.820;2023-10-08T04:36:19;69.68;;;34.42;;
67721;SDS011;58309;45.292;11.820;2023-10-08T04:38:46;75.13;;;36.17;;
67721;SDS011;58309;45.292;11.820;2023-10-08T04:41:15;71.82;;;35.78;;
67721;SDS011;58309;45.292;11.820;2023-10-08T04:43:44;75.32;;;35.83;;
67721;SDS011;58309;45.292;11.820;2023-10-08T04:46:10;71.28;;;35.78;;
67721;SDS011;58309;45.292;11.820;2023-10-08T04:48:50;72.10;;;36.35;;
67721;SDS011;58309;45.292;11.820;2023-10-08T04:51:16;83.22;;;38.50;;
67721;SDS011;58309;45.292;11.820;2023-10-08T04:53:43;85.85;;;38.67;;
67721;SDS011;58309;45.292;11.820;2023-10-08T04:56:11;86.93;;;40.45;;
67721;SDS011;58309;45.292;11.820;2023-10-08T04:58:44;76.75;;;36.70;;
67721;SDS011;58309;45.292;11.820;2023-10-08T05:01:15;84.22;;;39.70;;
67721;SDS011;58309;45.292;11.820;2023-10-08T05:04:03;77.13;;;37.90;;
67721;SDS011;58309;45.292;11.820;2023-10-08T05:06:30;95.43;;;40.95;;
67721;SDS011;58309;45.292;11.820;2023-10-08T05:09:06;92.80;;;40.63;;
67721;SDS011;58309;45.292;11.820;2023-10-08T05:11:46;83.72;;;40.28;;
67721;SDS011;58309;45.292;11.820;2023-10-08T05:14:15;97.95;;;42.53;;
67721;SDS011;58309;45.292;11.820;2023-10-08T05:16:57;96.72;;;40.53;;
67721;SDS011;58309;45.292;11.820;2023-10-08T05:19:47;79.85;;;40.08;;
67721;SDS011;58309;45.292;11.820;2023-10-08T05:22:32;86.75;;;40.88;;
67721;SDS011;58309;45.292;11.820;2023-10-08T05:24:58;87.70;;;38.95;;
67721;SDS011;58309;45.292;11.820;2023-10-08T05:27:33;78.68;;;35.72;;
67721;SDS011;58309;45.292;11.820;2023-10-08T05:32:53;84.97;;;40.08;;
67721;SDS011;58309;45.292;11.820;2023-10-08T05:35:29;84.22;;;39.85;;
67721;SDS011;58309;45.292;11.820;2023-10-08T05:38:10;83.25;;;40.05;;
67721;SDS011;58309;45.292;11.820;2023-10-08T05:40:55;90.05;;;39.88;;
67721;SDS011;58309;45.292;11.820;2023-10-08T05:43:42;88.05;;;40.72;;
67721;SDS011;58309;45.292;11.820;2023-10-08T05:46:12;86.03;;;40.00;;
67721;SDS011;58309;45.292;11.820;2023-10-08T05:48:51;76.57;;;37.63;;
67721;SDS011;58309;45.292;11.820;2023-10-08T05:51:33;74.20;;;38.05;;
67721;SDS011;58309;45.292;11.820;2023-10-08T05:54:12;73.40;;;38.03;;
67721;SDS011;58309;45.292;11.820;2023-10-08T05:57:15;73.32;;;38.22;;
67721;SDS011;58309;45.292;11.820;2023-10-08T06:00:00;74.55;;;37.70;;
67721;SDS011;58309;45.292;11.820;2023-10-08T06:02:29;73.43;;;38.92;;
67721;SDS011;58309;45.292;11.820;2023-10-08T06:04:59;75.20;;;39.35;;
67721;SDS011;58309;45.292;11.820;2023-10-08T06:10:13;73.53;;;39.55;;
67721;SDS011;58309;45.292;11.820;2023-10-08T06:18:14;66.35;;;35.33;;
67721;SDS011;58309;45.292;11.820;2023-10-08T06:20:50;73.22;;;37.15;;
67721;SDS011;58309;45.292;11.820;2023-10-08T06:23:32;70.28;;;35.17;;
67721;SDS011;58309;45.292;11.820;2023-10-08T06:26:00;74.70;;;37.67;;
67721;SDS011;58309;45.292;11.820;2023-10-08T06:28:35;73.30;;;36.80;;
67721;SDS011;58309;45.292;11.820;2023-10-08T06:31:01;70.15;;;37.38;;
67721;SDS011;58309;45.292;11.820;2023-10-08T06:33:32;73.93;;;38.20;;
67721;SDS011;58309;45.292;11.820;2023-10-08T06:36:02;79.78;;;40.30;;
67721;SDS011;58309;45.292;11.820;2023-10-08T06:38:31;75.20;;;37.78;;
67721;SDS011;58309;45.292;11.820;2023-10-08T06:40:58;72.30;;;38.15;;
67721;SDS011;58309;45.292;11.820;2023-10-08T06:43:28;63.38;;;35.45;;
67721;SDS011;58309;45.292;11.820;2023-10-08T06:45:53;68.30;;;37.85;;
67721;SDS011;58309;45.292;11.820;2023-10-08T06:48:23;68.07;;;36.92;;
67721;SDS011;58309;45.292;11.820;2023-10-08T06:50:49;72.28;;;38.88;;
67721;SDS011;58309;45.292;11.820;2023-10-08T06:53:16;67.40;;;37.50;;
67721;SDS011;58309;45.292;11.820;2023-10-08T06:55:44;67.82;;;37.28;;
67721;SDS011;58309;45.292;11.820;2023-10-08T06:58:10;59.70;;;35.72;;
67721;SDS011;58309;45.292;11.820;2023-10-08T07:00:39;69.03;;;37.33;;
67721;SDS011;58309;45.292;11.820;2023-10-08T07:03:11;63.80;;;35.35;;
67721;SDS011;58309;45.292;11.820;2023-10-08T07:05:40;64.28;;;35.17;;
67721;SDS011;58309;45.292;11.820;2023-10-08T07:08:13;59.97;;;35.08;;
67721;SDS011;58309;45.292;11.820;2023-10-08T07:10:40;67.22;;;36.47;;
67721;SDS011;58309;45.292;11.820;2023-10-08T07:13:10;67.15;;;36.88;;
67721;SDS011;58309;45.292;11.820;2023-10-08T07:15:36;64.55;;;37.50;;
67721;SDS011;58309;45.292;11.820;2023-10-08T07:18:06;65.72;;;36.65;;
67721;SDS011;58309;45.292;11.820;2023-10-08T07:20:38;67.10;;;37.42;;
67721;SDS011;58309;45.292;11.820;2023-10-08T07:23:07;64.60;;;38.13;;
67721;SDS011;58309;45.292;11.820;2023-10-08T07:25:51;66.25;;;39.25;;
67721;SDS011;58309;45.292;11.820;2023-10-08T07:28:18;67.35;;;39.38;;
67721;SDS011;58309;45.292;11.820;2023-10-08T07:30:45;66.45;;;38.05;;
67721;SDS011;58309;45.292;11.820;2023-10-08T07:33:13;67.97;;;39.70;;
67721;SDS011;58309;45.292;11.820;2023-10-08T07:35:50;60.55;;;37.58;;
67721;SDS011;58309;45.292;11.820;2023-10-08T07:38:22;60.72;;;35.55;;
67721;SDS011;58309;45.292;11.820;2023-10-08T07:40:52;56.60;;;35.22;;
67721;SDS011;58309;45.292;11.820;2023-10-08T07:43:20;53.60;;;32.95;;
67721;SDS011;58309;45.292;11.820;2023-10-08T07:45:46;55.97;;;32.03;;
67721;SDS011;58309;45.292;11.820;2023-10-08T07:48:12;59.92;;;32.97;;
67721;SDS011;58309;45.292;11.820;2023-10-08T07:50:45;57.17;;;34.20;;
67721;SDS011;58309;45.292;11.820;2023-10-08T07:53:11;51.83;;;32.63;;
67721;SDS011;58309;45.292;11.820;2023-10-08T07:55:44;54.80;;;32.65;;
67721;SDS011;58309;45.292;11.820;2023-10-08T07:58:12;60.72;;;32.20;;
67721;SDS011;58309;45.292;11.820;2023-10-08T08:00:39;51.55;;;31.70;;
67721;SDS011;58309;45.292;11.820;2023-10-08T08:03:16;49.30;;;31.50;;
67721;SDS011;58309;45.292;11.820;2023-10-08T08:05:45;52.55;;;32.55;;
67721;SDS011;58309;45.292;11.820;2023-10-08T08:08:11;52.92;;;32.58;;
67721;SDS011;58309;45.292;11.820;2023-10-08T08:10:42;56.13;;;34.38;;
67721;SDS011;58309;45.292;11.820;2023-10-08T08:13:11;57.37;;;34.77;;
67721;SDS011;58309;45.292;11.820;2023-10-08T08:15:37;53.90;;;34.50;;
67721;SDS011;58309;45.292;11.820;2023-10-08T08:18:07;59.78;;;35.53;;
67721;SDS011;58309;45.292;11.820;2023-10-08T08:20:39;55.83;;;35.03;;
67721;SDS011;58309;45.292;11.820;2023-10-08T08:23:08;63.00;;;36.00;;
67721;SDS011;58309;45.292;11.820;2023-10-08T08:25:38;64.90;;;36.03;;
67721;SDS011;58309;45.292;11.820;2023-10-08T08:28:22;63.28;;;35.10;;
67721;SDS011;58309;45.292;11.820;2023-10-08T08:30:50;58.15;;;35.47;;
67721;SDS011;58309;45.292;11.820;2023-10-08T08:33:17;62.33;;;35.03;;
67721;SDS011;58309;45.292;11.820;2023-10-08T08:35:48;56.92;;;34.90;;
67721;SDS011;58309;45.292;11.820;2023-10-08T08:41:00;57.55;;;34.55;;
67721;SDS011;58309;45.292;11.820;2023-10-08T08:43:32;56.55;;;35.42;;
67721;SDS011;58309;45.292;11.820;2023-10-08T08:46:02;60.67;;;36.25;;
67721;SDS011;58309;45.292;11.820;2023-10-08T08:48:32;58.05;;;35.90;;
67721;SDS011;58309;45.292;11.820;2023-10-08T08:51:00;57.67;;;34.40;;
67721;SDS011;58309;45.292;11.820;2023-10-08T08:53:29;54.47;;;35.10;;
67721;SDS011;58309;45.292;11.820;2023-10-08T08:55:54;56.60;;;34.33;;
67721;SDS011;58309;45.292;11.820;2023-10-08T08:58:21;54.65;;;33.45;;
67721;SDS011;58309;45.292;11.820;2023-10-08T09:00:47;52.00;;;32.20;;
67721;SDS011;58309;45.292;11.820;2023-10-08T09:03:15;46.10;;;31.35;;
67721;SDS011;58309;45.292;11.820;2023-10-08T09:05:40;48.58;;;32.92;;
67721;SDS011;58309;45.292;11.820;2023-10-08T09:08:07;49.80;;;32.97;;
67721;SDS011;58309;45.292;11.820;2023-10-08T09:10:35;49.35;;;31.55;;
67721;SDS011;58309;45.292;11.820;2023-10-08T09:13:03;46.50;;;31.10;;
67721;SDS011;58309;45.292;11.820;2023-10-08T09:15:29;43.00;;;29.80;;
67721;SDS011;58309;45.292;11.820;2023-10-08T09:17:57;47.13;;;32.13;;
67721;SDS011;58309;45.292;11.820;2023-10-08T09:20:29;44.03;;;30.67;;
67721;SDS011;58309;45.292;11.820;2023-10-08T09:25:42;43.88;;;31.90;;
67721;SDS011;58309;45.292;11.820;2023-10-08T09:28:09;46.92;;;31.45;;
67721;SDS011;58309;45.292;11.820;2023-10-08T09:30:38;44.42;;;32.22;;
67721;SDS011;58309;45.292;11.820;2023-10-08T09:33:09;46.38;;;32.85;;
67721;SDS011;58309;45.292;11.820;2023-10-08T09:35:35;40.97;;;30.40;;
67721;SDS011;58309;45.292;11.820;2023-10-08T09:38:05;40.03;;;30.10;;
67721;SDS011;58309;45.292;11.820;2023-10-08T09:40:39;43.88;;;31.48;;
67721;SDS011;58309;45.292;11.820;2023-10-08T09:43:11;40.78;;;30.45;;
67721;SDS011;58309;45.292;11.820;2023-10-08T09:45:38;40.80;;;31.35;;
67721;SDS011;58309;45.292;11.820;2023-10-08T09:48:10;42.38;;;30.73;;
67721;SDS011;58309;45.292;11.820;2023-10-08T09:50:40;38.58;;;29.38;;
67721;SDS011;58309;45.292;11.820;2023-10-08T09:53:10;45.47;;;30.77;;
67721;SDS011;58309;45.292;11.820;2023-10-08T09:55:46;39.60;;;28.42;;
67721;SDS011;58309;45.292;11.820;2023-10-08T09:58:20;43.83;;;29.67;;
67721;SDS011;58309;45.292;11.820;2023-10-08T10:00:52;42.63;;;30.38;;
67721;SDS011;58309;45.292;11.820;2023-10-08T10:03:21;38.53;;;29.08;;
67721;SDS011;58309;45.292;11.820;2023-10-08T10:05:49;39.90;;;29.50;;
67721;SDS011;58309;45.292;11.820;2023-10-08T10:08:19;39.88;;;29.10;;
67721;SDS011;58309;45.292;11.820;2023-10-08T10:10:50;38.88;;;28.65;;
67721;SDS011;58309;45.292;11.820;2023-10-08T10:13:24;38.63;;;29.45;;
67721;SDS011;58309;45.292;11.820;2023-10-08T10:16:06;35.70;;;27.40;;
67721;SDS011;58309;45.292;11.820;2023-10-08T10:18:33;38.33;;;28.30;;
67721;SDS011;58309;45.292;11.820;2023-10-08T10:20:59;34.67;;;27.83;;
67721;SDS011;58309;45.292;11.820;2023-10-08T10:23:38;33.70;;;26.00;;
67721;SDS011;58309;45.292;11.820;2023-10-08T10:29:18;35.13;;;27.73;;
67721;SDS011;58309;45.292;11.820;2023-10-08T10:31:48;36.70;;;27.33;;
67721;SDS011;58309;45.292;11.820;2023-10-08T10:34:23;35.08;;;25.80;;
67721;SDS011;58309;45.292;11.820;2023-10-08T10:36:54;32.97;;;26.23;;
67721;SDS011;58309;45.292;11.820;2023-10-08T10:39:22;36.60;;;25.63;;
67721;SDS011;58309;45.292;11.820;2023-10-08T10:41:53;37.75;;;26.63;;
67721;SDS011;58309;45.292;11.820;2023-10-08T10:46:48;41.55;;;28.15;;
67721;SDS011;58309;45.292;11.820;2023-10-08T10:49:37;33.08;;;25.15;;
67721;SDS011;58309;45.292;11.820;2023-10-08T10:52:24;38.00;;;26.65;;
67721;SDS011;58309;45.292;11.820;2023-10-08T10:54:59;35.75;;;26.88;;
67721;SDS011;58309;45.292;11.820;2023-10-08T10:57:40;37.17;;;28.08;;
67721;SDS011;58309;45.292;11.820;2023-10-08T11:00:07;36.40;;;27.70;;
67721;SDS011;58309;45.292;11.820;2023-10-08T11:02:52;41.70;;;28.45;;
67721;SDS011;58309;45.292;11.820;2023-10-08T11:05:24;38.10;;;28.13;;
67721;SDS011;58309;45.292;11.820;2023-10-08T11:07:56;34.38;;;26.52;;
67721;SDS011;58309;45.292;11.820;2023-10-08T11:10:33;35.55;;;26.00;;
67721;SDS011;58309;45.292;11.820;2023-10-08T11:13:03;41.05;;;27.38;;
67721;SDS011;58309;45.292;11.820;2023-10-08T11:15:43;41.20;;;28.58;;
67721;SDS011;58309;45.292;11.820;2023-10-08T11:18:15;39.95;;;27.42;;
67721;SDS011;58309;45.292;11.820;2023-10-08T11:20:42;37.78;;;28.38;;
67721;SDS011;58309;45.292;11.820;2023-10-08T11:23:11;39.47;;;27.58;;
67721;SDS011;58309;45.292;11.820;2023-10-08T11:26:17;40.90;;;27.45;;
67721;SDS011;58309;45.292;11.820;2023-10-08T11:28:45;37.90;;;27.33;;
67721;SDS011;58309;45.292;11.820;2023-10-08T11:31:17;40.47;;;28.52;;
67721;SDS011;58309;45.292;11.820;2023-10-08T11:33:44;37.40;;;26.63;;
67721;SDS011;58309;45.292;11.820;2023-10-08T11:36:23;40.00;;;28.45;;
67721;SDS011;58309;45.292;11.820;2023-10-08T11:38:59;44.10;;;30.10;;
67721;SDS011;58309;45.292;11.820;2023-10-08T11:41:34;45.70;;;30.88;;
67721;SDS011;58309;45.292;11.820;2023-10-08T11:44:15;43.53;;;30.42;;
67721;SDS011;58309;45.292;11.820;2023-10-08T11:46:44;44.25;;;30.35;;
67721;SDS011;58309;45.292;11.820;2023-10-08T11:49:11;52.60;;;31.08;;
67721;SDS011;58309;45.292;11.820;2023-10-08T11:51:43;47.38;;;31.77;;
67721;SDS011;58309;45.292;11.820;2023-10-08T11:54:13;46.88;;;31.75;;
67721;SDS011;58309;45.292;11.820;2023-10-08T11:56:39;50.17;;;33.65;;
67721;SDS011;58309;45.292;11.820;2023-10-08T11:59:05;51.08;;;34.78;;
67721;SDS011;58309;45.292;11.820;2023-10-08T12:01:37;50.83;;;33.55;;
67721;SDS011;58309;45.292;11.820;2023-10-08T12:04:07;54.58;;;35.67;;
67721;SDS011;58309;45.292;11.820;2023-10-08T12:06:41;51.30;;;32.78;;
67721;SDS011;58309;45.292;11.820;2023-10-08T12:09:12;50.55;;;34.30;;
67721;SDS011;58309;45.292;11.820;2023-10-08T12:11:39;53.58;;;34.22;;
67721;SDS011;58309;45.292;11.820;2023-10-08T12:14:08;51.80;;;33.05;;
67721;SDS011;58309;45.292;11.820;2023-10-08T12:16:39;64.47;;;45.55;;
67721;SDS011;58309;45.292;11.820;2023-10-08T12:19:06;48.88;;;31.85;;
67721;SDS011;58309;45.292;11.820;2023-10-08T12:21:42;71.60;;;48.75;;
67721;SDS011;58309;45.292;11.820;2023-10-08T12:26:40;50.33;;;30.63;;
67721;SDS011;58309;45.292;11.820;2023-10-08T12:29:12;48.17;;;30.90;;
67721;SDS011;58309;45.292;11.820;2023-10-08T12:31:42;42.78;;;29.48;;
67721;SDS011;58309;45.292;11.820;2023-10-08T12:34:12;49.75;;;30.63;;
67721;SDS011;58309;45.292;11.820;2023-10-08T12:36:38;50.25;;;31.45;;
67721;SDS011;58309;45.292;11.820;2023-10-08T12:39:04;47.20;;;29.42;;
67721;SDS011;58309;45.292;11.820;2023-10-08T12:41:40;51.20;;;35.75;;
67721;SDS011;58309;45.292;11.820;2023-10-08T12:46:34;59.85;;;42.63;;
67721;SDS011;58309;45.292;11.820;2023-10-08T12:49:01;47.70;;;28.90;;
67721;SDS011;58309;45.292;11.820;2023-10-08T12:51:28;70.45;;;59.20;;
67721;SDS011;58309;45.292;11.820;2023-10-08T12:53:57;47.53;;;33.72;;
67721;SDS011;58309;45.292;11.820;2023-10-08T12:56:29;64.28;;;44.40;;
67721;SDS011;58309;45.292;11.820;2023-10-08T12:59:03;70.40;;;55.03;;
67721;SDS011;58309;45.292;11.820;2023-10-08T13:01:32;43.25;;;28.05;;
67721;SDS011;58309;45.292;11.820;2023-10-08T13:04:00;34.95;;;23.80;;
67721;SDS011;58309;45.292;11.820;2023-10-08T13:06:32;79.30;;;59.80;;
67721;SDS011;58309;45.292;11.820;2023-10-08T13:08:58;48.05;;;35.30;;
67721;SDS011;58309;45.292;11.820;2023-10-08T13:11:25;36.45;;;25.20;;
67721;SDS011;58309;45.292;11.820;2023-10-08T13:13:55;36.85;;;23.95;;
67721;SDS011;58309;45.292;11.820;2023-10-08T13:16:22;39.38;;;27.42;;
67721;SDS011;58309;45.292;11.820;2023-10-08T13:18:52;46.30;;;27.90;;
67721;SDS011;58309;45.292;11.820;2023-10-08T13:21:21;38.92;;;24.75;;
67721;SDS011;58309;45.292;11.820;2023-10-08T13:23:50;37.28;;;24.90;;
67721;SDS011;58309;45.292;11.820;2023-10-08T13:26:22;43.33;;;26.77;;
67721;SDS011;58309;45.292;11.820;2023-10-08T13:28:49;52.53;;;26.30;;
67721;SDS011;58309;45.292;11.820;2023-10-08T13:31:15;43.75;;;25.67;;
67721;SDS011;58309;45.292;11.820;2023-10-08T13:33:41;36.17;;;23.67;;
67721;SDS011;58309;45.292;11.820;2023-10-08T13:36:09;34.47;;;21.88;;
67721;SDS011;58309;45.292;11.820;2023-10-08T13:38:38;32.47;;;21.10;;
67721;SDS011;58309;45.292;11.820;2023-10-08T13:41:06;41.95;;;24.40;;
67721;SDS011;58309;45.292;11.820;2023-10-08T13:43:40;33.58;;;22.58;;
67721;SDS011;58309;45.292;11.820;2023-10-08T13:46:07;38.97;;;24.77;;
67721;SDS011;58309;45.292;11.820;2023-10-08T13:48:38;35.67;;;24.40;;
67721;SDS011;58309;45.292;11.820;2023-10-08T13:51:05;33.95;;;21.50;;
67721;SDS011;58309;45.292;11.820;2023-10-08T13:53:38;33.40;;;21.00;;
67721;SDS011;58309;45.292;11.820;2023-10-08T13:56:05;31.88;;;20.10;;
67721;SDS011;58309;45.292;11.820;2023-10-08T13:58:30;30.02;;;20.98;;
67721;SDS011;58309;45.292;11.820;2023-10-08T14:00:59;29.98;;;21.27;;
67721;SDS011;58309;45.292;11.820;2023-10-08T14:03:26;31.42;;;20.13;;
67721;SDS011;58309;45.292;11.820;2023-10-08T14:05:56;32.50;;;19.02;;
67721;SDS011;58309;45.292;11.820;2023-10-08T14:08:26;29.52;;;17.27;;
67721;SDS011;58309;45.292;11.820;2023-10-08T14:10:54;34.50;;;19.80;;
67721;SDS011;58309;45.292;11.820;2023-10-08T14:13:25;26.30;;;17.08;;
67721;SDS011;58309;45.292;11.820;2023-10-08T14:15:52;30.08;;;18.38;;
67721;SDS011;58309;45.292;11.820;2023-10-08T14:18:22;31.40;;;19.83;;
67721;SDS011;58309;45.292;11.820;2023-10-08T14:20:53;28.58;;;18.58;;
67721;SDS011;58309;45.292;11.820;2023-10-08T14:23:24;32.92;;;19.23;;
67721;SDS011;58309;45.292;11.820;2023-10-08T14:25:54;31.10;;;18.77;;
67721;SDS011;58309;45.292;11.820;2023-10-08T14:28:31;30.92;;;19.80;;
67721;SDS011;58309;45.292;11.820;2023-10-08T14:31:09;28.95;;;19.02;;
67721;SDS011;58309;45.292;11.820;2023-10-08T14:33:43;30.75;;;20.23;;
67721;SDS011;58309;45.292;11.820;2023-10-08T14:36:24;30.13;;;19.40;;
67721;SDS011;58309;45.292;11.820;2023-10-08T14:39:11;27.10;;;18.90;;
67721;SDS011;58309;45.292;11.820;2023-10-08T14:41:55;31.67;;;20.67;;
67721;SDS011;58309;45.292;11.820;2023-10-08T14:44:39;37.67;;;22.88;;
67721;SDS011;58309;45.292;11.820;2023-10-08T14:47:06;35.25;;;23.48;;
67721;SDS011;58309;45.292;11.820;2023-10-08T14:49:35;40.67;;;23.15;;
67721;SDS011;58309;45.292;11.820;2023-10-08T14:52:00;29.88;;;20.50;;
67721;SDS011;58309;45.292;11.820;2023-10-08T14:54:29;39.63;;;24.17;;
67721;SDS011;58309;45.292;11.820;2023-10-08T14:56:56;37.83;;;23.13;;
67721;SDS011;58309;45.292;11.820;2023-10-08T14:59:22;36.38;;;21.13;;
67721;SDS011;58309;45.292;11.820;2023-10-08T15:01:48;38.42;;;22.77;;
67721;SDS011;58309;45.292;11.820;2023-10-08T15:04:15;39.15;;;24.45;;